Data for 02/07/2017

Time Sea-Level Adjusted Pressure Absolute Pressure Temperature Relative Humidity Dew Point   
(mb) (inHg) (mb) (inHg) (C) (F) (%) (C) (F)
00:05 1006 29.71 835 24.66 -4.5 24 91 -5.7 21.8
00:10 1006 29.71 835 24.66 -4.6 23.8 91 -5.8 21.6
00:15 1006 29.71 835 24.66 -4.5 23.9 92 -5.7 21.8
00:20 1006 29.71 835 24.66 -4.5 23.9 92 -5.7 21.8
00:25 1006 29.71 835 24.66 -4.6 23.7 91 -5.8 21.6
00:30 1006 29.71 835 24.66 -4.7 23.5 92 -5.9 21.4
00:35 1006 29.71 835 24.66 -4.7 23.5 92 -5.8 21.5
00:40 1006 29.71 835 24.66 -4.7 23.5 92 -5.8 21.5
00:45 1006 29.71 835 24.66 -4.7 23.5 92 -5.8 21.5
00:50 1006 29.71 835 24.66 -4.7 23.6 92 -5.9 21.5
00:55 1006 29.71 835 24.66 -4.7 23.6 91 -5.9 21.4
01:00 1006 29.71 835 24.66 -4.6 23.7 91 -5.9 21.4
01:05 1006 29.71 835 24.66 -4.6 23.7 90 -5.9 21.3
01:10 1006 29.71 835 24.66 -4.6 23.8 90 -5.9 21.4
01:15 1006 29.71 835 24.66 -4.4 24.1 90 -5.8 21.6
01:20 1006 29.71 835 24.66 -4.4 24.1 90 -5.8 21.5
01:25 1006 29.71 835 24.66 -4.4 24.2 89 -5.9 21.4
01:30 1006 29.71 835 24.66 -4.3 24.2 89 -5.9 21.4
01:35 1006 29.71 835 24.66 -4.3 24.3 89 -5.8 21.6
01:40 1006 29.71 835 24.66 -4.2 24.5 89 -5.8 21.6
01:45 1006 29.71 835 24.66 -4.1 24.6 89 -5.7 21.7
01:50 1006 29.71 835 24.66 -4.1 24.7 88 -5.7 21.7
01:55 1006 29.71 835 24.66 -4 24.8 88 -5.7 21.8
02:00 1006 29.71 835 24.66 -4.1 24.6 89 -5.7 21.8
02:05 1006 29.71 835 24.66 -4.2 24.4 89 -5.8 21.6
02:10 1006 29.71 835 24.66 -4.3 24.3 90 -5.8 21.6
02:15 1006 29.71 835 24.66 -4.3 24.2 90 -5.8 21.6
02:20 1006 29.71 835 24.66 -4.4 24.1 90 -5.8 21.5
02:25 1006 29.71 835 24.66 -4.5 23.8 89 -6 21.1
02:30 1006 29.71 835 24.66 -4.7 23.6 90 -6.1 21.1
02:35 1006 29.71 835 24.66 -4.7 23.6 90 -6.1 21.1
02:40 1006 29.71 835 24.66 -4.6 23.7 90 -6 21.1
02:45 1006 29.71 835 24.66 -4.7 23.6 90 -6.1 21
02:50 1006 29.71 835 24.66 -4.7 23.5 90 -6.2 20.9
02:55 1006 29.71 835 24.66 -4.7 23.5 90 -6.2 20.9
03:00 1006 29.71 836 24.69 -4.7 23.5 90 -6.2 20.8
03:05 1006 29.71 836 24.69 -4.8 23.4 89 -6.3 20.6
03:10 1007 29.74 836 24.69 -4.9 23.2 89 -6.4 20.5
03:15 1007 29.74 836 24.69 -4.9 23.3 89 -6.4 20.6
03:20 1007 29.74 836 24.69 -4.7 23.5 89 -6.4 20.6
03:25 1007 29.74 836 24.69 -4.8 23.4 88 -6.4 20.5
03:30 1007 29.74 836 24.69 -4.8 23.3 88 -6.4 20.4
03:35 1007 29.74 836 24.69 -4.9 23.2 89 -6.4 20.5
03:40 1007 29.74 836 24.69 -4.8 23.4 88 -6.4 20.4
03:45 1007 29.74 836 24.69 -4.9 23.1 90 -6.4 20.5
03:50 1007 29.74 836 24.69 -5 22.9 89 -6.5 20.3
03:55 1007 29.74 836 24.69 -5.1 22.8 89 -6.6 20.1
04:00 1007 29.74 836 24.69 -5.3 22.5 89 -6.9 19.7
04:05 1007 29.74 836 24.69 -5.7 21.7 89 -7.3 18.9
04:10 1007 29.74 836 24.69 -6 21.1 89 -7.6 18.4
04:15 1007 29.74 836 24.69 -6.2 20.8 90 -7.7 18.2
04:20 1007 29.74 836 24.69 -6.4 20.5 90 -7.8 18
04:25 1007 29.74 836 24.69 -6.5 20.3 90 -7.8 17.9
04:30 1007 29.74 836 24.69 -6.5 20.3 91 -7.8 17.9
04:35 1007 29.74 836 24.69 -6.5 20.4 91 -7.7 18.1
04:40 1007 29.74 837 24.72 -6.3 20.7 91 -7.5 18.4
04:45 1007 29.74 837 24.72 -6.2 20.9 90 -7.5 18.4
04:50 1008 29.77 837 24.72 -6.2 20.9 90 -7.6 18.4
04:55 1008 29.77 837 24.72 -6.3 20.7 89 -7.9 17.9
05:00 1008 29.77 837 24.72 -6.7 20 90 -8.1 17.4
05:05 1008 29.77 837 24.72 -6.9 19.6 91 -8.1 17.4
05:10 1008 29.77 837 24.72 -6.9 19.6 92 -8 17.5
05:15 1008 29.77 837 24.72 -6.8 19.7 91 -8 17.6
05:20 1008 29.77 837 24.72 -6.9 19.6 91 -8.1 17.4
05:25 1008 29.77 837 24.72 -6.8 19.8 91 -8 17.6
05:30 1008 29.77 837 24.72 -6.8 19.7 91 -8.1 17.4
05:35 1008 29.77 837 24.72 -6.9 19.6 91 -8.1 17.4
05:40 1008 29.77 837 24.72 -6.8 19.7 91 -8 17.5
05:45 1008 29.77 837 24.72 -6.7 20 91 -8 17.6
05:50 1008 29.77 837 24.72 -6.3 20.7 89 -7.8 18
05:55 1008 29.77 837 24.72 -6 21.1 89 -7.5 18.4
06:00 1008 29.77 837 24.72 -5.6 22 86 -7.5 18.5
06:05 1008 29.77 837 24.72 -5.3 22.4 86 -7.4 18.7
06:10 1008 29.77 837 24.72 -5.2 22.6 83 -7.6 18.3
06:15 1008 29.77 837 24.72 -5.1 22.8 83 -7.6 18.2
06:20 1008 29.77 837 24.72 -5 23 83 -7.4 18.6
06:25 1008 29.77 837 24.72 -4.9 23.2 82 -7.5 18.5
06:30 1008 29.77 837 24.72 -4.8 23.5 81 -7.5 18.5
06:35 1008 29.77 837 24.72 -4.7 23.5 81 -7.6 18.4
06:40 1008 29.77 837 24.72 -4.8 23.4 80 -7.7 18.2
06:45 1008 29.77 837 24.72 -4.9 23.2 82 -7.5 18.6
06:50 1008 29.77 837 24.72 -5.1 22.8 82 -7.7 18.2
06:55 1008 29.77 837 24.72 -5.5 22.2 85 -7.6 18.3
07:00 1008 29.77 837 24.72 -5.6 21.9 84 -7.9 17.8
07:05 1008 29.77 837 24.72 -5.5 22.2 82 -8 17.5
07:10 1008 29.77 837 24.72 -5.2 22.7 81 -8 17.6
07:15 1008 29.77 837 24.72 -5.1 22.8 81 -7.9 17.7
07:20 1008 29.77 837 24.72 -5.2 22.7 80 -8 17.5
07:25 1008 29.77 837 24.72 -5.1 22.8 80 -8 17.6
07:30 1008 29.77 837 24.72 -5.1 22.9 80 -8.1 17.5
07:35 1008 29.77 837 24.72 -5.1 22.9 80 -7.9 17.7
07:40 1008 29.77 837 24.72 -5.1 22.9 81 -7.9 17.8
07:45 1008 29.77 837 24.72 -5.1 22.8 82 -7.8 18
07:50 1008 29.77 837 24.72 -5.2 22.6 83 -7.6 18.3
07:55 1008 29.77 837 24.72 -5.3 22.5 84 -7.6 18.3
08:00 1008 29.77 837 24.72 -5.4 22.3 84 -7.7 18.2
08:05 1008 29.77 837 24.72 -5.2 22.7 82 -7.8 17.9
08:10 1008 29.77 837 24.72 -5 22.9 83 -7.6 18.4
08:15 1007 29.74 837 24.72 -5.1 22.9 82 -7.6 18.3
08:20 1007 29.74 837 24.72 -4.9 23.1 82 -7.6 18.4
08:25 1007 29.74 837 24.72 -4.9 23.2 81 -7.6 18.3
08:30 1007 29.74 837 24.72 -5 23.1 82 -7.6 18.2
08:35 1007 29.74 837 24.72 -5 23.1 82 -7.6 18.3
08:40 1008 29.77 837 24.72 -5 23 83 -7.5 18.6
08:45 1008 29.77 837 24.72 -5.2 22.6 83 -7.8 18
08:50 1008 29.77 837 24.72 -5.2 22.7 80 -8 17.6
08:55 1007 29.74 837 24.72 -5.1 22.8 81 -7.9 17.8
09:00 1007 29.74 837 24.72 -5.2 22.6 80 -8.2 17.3
09:05 1007 29.74 837 24.72 -5.1 22.8 79 -8.2 17.2
09:10 1007 29.74 837 24.72 -5.2 22.6 79 -8.4 16.9
09:15 1007 29.74 836 24.69 -5.2 22.7 78 -8.4 16.9
09:20 1007 29.74 836 24.69 -5.1 22.8 77 -8.5 16.7
09:25 1007 29.74 836 24.69 -5.1 22.9 75 -8.8 16.2
09:30 1007 29.74 836 24.69 -5 23 76 -8.5 16.6
09:35 1007 29.74 836 24.69 -5.1 22.9 77 -8.4 16.8
09:40 1007 29.74 836 24.69 -5.1 22.9 73 -9.2 15.5
09:45 1007 29.74 836 24.69 -4.9 23.1 75 -8.8 16.2
09:50 1007 29.74 836 24.69 -4.9 23.2 73 -9.1 15.6
09:55 1006 29.71 836 24.69 -5 23 76 -8.6 16.6
10:00 1006 29.71 836 24.69 -5 23 74 -8.9 15.9
10:05 1006 29.71 836 24.69 -5.2 22.7 75 -9 15.8
10:10 1006 29.71 836 24.69 -5.1 22.8 75 -9 15.9
10:15 1007 29.74 836 24.69 -5 23 74 -8.9 16
10:20 1007 29.74 836 24.69 -4.9 23.2 73 -9 15.7
10:25 1007 29.74 836 24.69 -4.7 23.6 73 -8.7 16.3
10:30 1007 29.74 836 24.69 -4.5 24 71 -9 15.8
10:35 1007 29.74 836 24.69 -4.5 23.9 71 -9 15.9
10:40 1006 29.71 836 24.69 -4.3 24.3 72 -8.7 16.4
10:45 1006 29.71 835 24.66 -4 24.7 70 -8.7 16.4
10:50 1006 29.71 835 24.66 -4 24.9 68 -9 15.7
10:55 1006 29.71 835 24.66 -4.1 24.6 71 -8.7 16.4
11:00 1006 29.71 835 24.66 -4 24.9 71 -8.5 16.7
11:05 1006 29.71 835 24.66 -4 24.9 71 -8.4 16.9
11:10 1006 29.71 835 24.66 -3.8 25.2 71 -8.3 17.1
11:15 1006 29.71 835 24.66 -3.5 25.7 70 -8.2 17.2
11:20 1006 29.71 835 24.66 -3.5 25.7 74 -7.5 18.5
11:25 1006 29.71 835 24.66 -3.4 25.9 73 -7.5 18.5
11:30 1006 29.71 835 24.66 -3.7 25.4 75 -7.5 18.5
11:35 1006 29.71 836 24.69 -4.9 23.2 79 -8 17.7
11:40 1007 29.74 836 24.69 -4.5 23.8 78 -7.8 17.9
11:45 1007 29.74 836 24.69 -5.5 22 80 -8.4 16.8
11:50 1007 29.74 836 24.69 -5.8 21.5 80 -8.8 16.2
11:55 1007 29.74 836 24.69 -5.2 22.7 76 -8.7 16.3
12:00 1007 29.74 836 24.69 -5.1 22.8 77 -8.5 16.7
12:05 1007 29.74 836 24.69 -5.5 22.1 77 -8.9 16.1
12:10 1007 29.74 836 24.69 -5.9 21.3 78 -9.2 15.5
12:15 1007 29.74 836 24.69 -6.1 21.1 77 -9.4 15.1
12:20 1007 29.74 836 24.69 -6.2 20.8 77 -9.7 14.6
12:25 1006 29.71 836 24.69 -6.7 19.9 81 -9.5 14.9
12:30 1006 29.71 836 24.69 -6.3 20.7 78 -9.6 14.7
12:35 1006 29.71 836 24.69 -5.7 21.7 75 -9.5 14.8
12:40 1006 29.71 835 24.66 -5.9 21.4 76 -9.5 14.9
12:45 1006 29.71 835 24.66 -6.3 20.7 77 -9.6 14.7
12:50 1006 29.71 835 24.66 -7.3 18.9 84 -9.6 14.7
12:55 1006 29.71 835 24.66 -6.4 20.5 78 -9.6 14.7
13:00 1006 29.71 835 24.66 -6.8 19.7 81 -9.6 14.7
13:05 1006 29.71 835 24.66 -7.5 18.5 81 -10.2 13.6
13:10 1006 29.71 835 24.66 -7.4 18.8 82 -9.9 14.2
13:15 1006 29.71 835 24.66 -6.6 20.2 79 -9.6 14.7
13:20 1005 29.68 835 24.66 -6.4 20.5 78 -9.6 14.7
13:25 1005 29.68 835 24.66 -6.4 20.6 79 -9.4 15
13:30 1005 29.68 834 24.63 -5.7 21.8 75 -9.4 15.1
13:35 1005 29.68 834 24.63 -5.3 22.5 75 -9 15.7
13:40 1005 29.68 834 24.63 -5.1 22.8 73 -9.3 15.3
13:45 1005 29.68 834 24.63 -5.9 21.4 76 -9.4 15
13:50 1005 29.68 834 24.63 -6.3 20.7 79 -9.4 15.1
13:55 1005 29.68 834 24.63 -6.2 20.8 77 -9.6 14.7
14:00 1005 29.68 834 24.63 -5.9 21.4 76 -9.4 15
14:05 1004 29.65 833 24.6 -5.4 22.4 73 -9.4 15.1
14:10 1004 29.65 833 24.6 -5.2 22.7 72 -9.4 15
14:15 1004 29.65 833 24.6 -5.9 21.4 78 -9.1 15.6
14:20 1004 29.65 833 24.6 -5.4 22.3 73 -9.6 14.8
14:25 1004 29.65 833 24.6 -5.3 22.5 74 -9.2 15.4
14:30 1004 29.65 833 24.6 -4.9 23.2 71 -9.4 15.2
14:35 1004 29.65 833 24.6 -5.1 22.8 70 -9.7 14.5
14:40 1004 29.65 833 24.6 -5.9 21.4 75 -9.6 14.8
14:45 1004 29.65 833 24.6 -6.1 21 73 -10.3 13.5
14:50 1004 29.65 833 24.6 -6.8 19.8 77 -10.2 13.7
14:55 1004 29.65 833 24.6 -7.3 18.8 76 -10.9 12.4
15:00 1004 29.65 833 24.6 -6.9 19.6 74 -10.8 12.6
15:05 1004 29.65 833 24.6 -6.9 19.6 72 -11.1 12.1
15:10 1004 29.65 833 24.6 -7.5 18.5 76 -11 12.2
15:15 1004 29.65 833 24.6 -7.8 17.9 76 -11.4 11.5
15:20 1004 29.65 833 24.6 -7.5 18.5 76 -11 12.1
15:25 1004 29.65 833 24.6 -7.6 18.3 76 -11.1 12
15:30 1004 29.65 833 24.6 -7.5 18.5 76 -11.1 12
15:35 1004 29.65 833 24.6 -7.5 18.6 75 -11.1 12
15:40 1004 29.65 833 24.6 -7.7 18.2 76 -11.2 11.9
15:45 1004 29.65 833 24.6 -8 17.6 79 -11 12.1
15:50 1004 29.65 833 24.6 -8 17.7 78 -11.2 11.9
15:55 1004 29.65 833 24.6 -8.3 17.1 81 -10.9 12.3
16:00 1004 29.65 833 24.6 -7.9 17.8 79 -11 12.2
16:05 1004 29.65 833 24.6 -7.6 18.3 78 -10.9 12.4
16:10 1004 29.65 833 24.6 -8 17.6 80 -10.9 12.5
16:15 1004 29.65 833 24.6 -7.9 17.9 80 -10.7 12.7
16:20 1004 29.65 833 24.6 -7.6 18.3 78 -10.9 12.4
16:25 1004 29.65 833 24.6 -7.5 18.5 77 -10.9 12.5
16:30 1004 29.65 833 24.6 -7.4 18.6 77 -10.7 12.7
16:35 1004 29.65 833 24.6 -7.5 18.5 79 -10.6 13
16:40 1003 29.62 833 24.6 -7.5 18.6 78 -10.6 12.9
16:45 1003 29.62 832 24.57 -7.7 18.1 80 -10.6 13
16:50 1003 29.62 832 24.57 -8.4 17 78 -11.5 11.3
16:55 1003 29.62 832 24.57 -8.8 16.1 79 -11.9 10.6
17:00 1003 29.62 832 24.57 -9.2 15.5 80 -12 10.3
17:05 1003 29.62 832 24.57 -9.4 15.1 79 -12.4 9.6
17:10 1003 29.62 832 24.57 -9.8 14.3 78 -13 8.6
17:15 1002 29.59 832 24.57 -10.1 13.8 78 -13.3 8
17:20 1002 29.59 831 24.54 -10.2 13.6 76 -13.7 7.3
17:25 1003 29.62 832 24.57 -10.4 13.2 76 -13.9 7
17:30 1003 29.62 832 24.57 -10.4 13.3 77 -13.6 7.5
17:35 1004 29.65 833 24.6 -10.2 13.6 77 -13.5 7.7
17:40 1004 29.65 833 24.6 -10 14.1 79 -12.9 8.7
17:45 1004 29.65 833 24.6 -9.5 14.8 84 -11.8 10.8
17:50 1004 29.65 833 24.6 -9.1 15.7 84 -11.4 11.5
17:55 1004 29.65 833 24.6 -8.8 16.2 82 -11.3 11.7
18:00 1004 29.65 833 24.6 -9.5 14.9 84 -11.8 10.8
18:05 1004 29.65 833 24.6 -9.8 14.3 85 -11.9 10.6
18:10 1004 29.65 833 24.6 -10 14 82 -12.6 9.4
18:15 1004 29.65 834 24.63 -10.8 12.5 84 -13.1 8.5
18:20 1004 29.65 833 24.6 -11.3 11.6 85 -13.4 7.8
18:25 1004 29.65 833 24.6 -11.5 11.3 83 -13.9 6.9
18:30 1004 29.65 834 24.63 -11.8 10.8 82 -14.2 6.4
18:35 1005 29.68 834 24.63 -12 10.4 83 -14.4 6.2
18:40 1005 29.68 834 24.63 -12 10.3 84 -14.3 6.3
18:45 1005 29.68 834 24.63 -11.9 10.6 81 -14.5 5.9
18:50 1005 29.68 834 24.63 -12 10.5 82 -14.5 6
18:55 1005 29.68 834 24.63 -12 10.4 82 -14.5 5.8
19:00 1005 29.68 835 24.66 -12.1 10.2 82 -14.6 5.7
19:05 1006 29.71 835 24.66 -12.3 9.9 81 -14.8 5.3
19:10 1006 29.71 835 24.66 -12.6 9.4 82 -15 5
19:15 1006 29.71 835 24.66 -12.7 9.1 82 -15.2 4.7
19:20 1006 29.71 835 24.66 -13 8.6 82 -15.4 4.3
19:25 1006 29.71 835 24.66 -13.1 8.5 83 -15.4 4.4
19:30 1006 29.71 836 24.69 -13 8.6 83 -15.3 4.4
19:35 1006 29.71 836 24.69 -13 8.6 83 -15.3 4.4
19:40 1006 29.71 835 24.66 -13 8.5 82 -15.5 4.2
19:45 1006 29.71 835 24.66 -13.2 8.3 83 -15.5 4.1
19:50 1006 29.71 835 24.66 -13.2 8.3 83 -15.4 4.2
19:55 1006 29.71 835 24.66 -13 8.5 83 -15.4 4.3
20:00 1006 29.71 836 24.69 -13.1 8.5 82 -15.6 4
20:05 1006 29.71 836 24.69 -13.1 8.4 82 -15.6 3.9
20:10 1006 29.71 836 24.69 -13 8.6 81 -15.5 4.1
20:15 1006 29.71 836 24.69 -12.9 8.7 81 -15.5 4.1
20:20 1007 29.74 836 24.69 -13 8.6 79 -16 3.2
20:25 1007 29.74 836 24.69 -13.2 8.3 80 -15.9 3.3
20:30 1007 29.74 836 24.69 -13.2 8.2 81 -15.9 3.5
20:35 1007 29.74 836 24.69 -13.3 8 82 -15.9 3.4
20:40 1007 29.74 836 24.69 -13.4 7.9 82 -15.9 3.5
20:45 1007 29.74 836 24.69 -13.5 7.7 82 -16 3.2
20:50 1007 29.74 836 24.69 -13.6 7.5 82 -16 3.1
20:55 1007 29.74 836 24.69 -13.5 7.6 81 -16.1 3.1
21:00 1007 29.74 836 24.69 -13.3 8 83 -15.7 3.7
21:05 1007 29.74 836 24.69 -13.1 8.5 83 -15.4 4.3
21:10 1007 29.74 836 24.69 -12.8 9.1 82 -15.2 4.7
21:15 1007 29.74 836 24.69 -12.8 9 84 -14.9 5.1
21:20 1007 29.74 837 24.72 -12.7 9.1 83 -15.1 4.8
21:25 1007 29.74 837 24.72 -13 8.7 85 -15 5
21:30 1007 29.74 836 24.69 -12.8 8.9 82 -15.3 4.5
21:35 1007 29.74 837 24.72 -13.2 8.3 83 -15.4 4.2
21:40 1008 29.77 837 24.72 -13.3 8.1 84 -15.5 4.2
21:45 1008 29.77 837 24.72 -13.2 8.2 86 -15.1 4.9
21:50 1008 29.77 837 24.72 -13 8.6 84 -15.2 4.6
21:55 1008 29.77 837 24.72 -13.2 8.3 84 -15.2 4.6
22:00 1008 29.77 837 24.72 -12.9 8.8 84 -15 5
22:05 1008 29.77 837 24.72 -12.5 9.4 83 -14.8 5.4
22:10 1008 29.77 837 24.72 -12.5 9.6 82 -14.9 5.1
22:15 1008 29.77 838 24.75 -12.6 9.2 82 -15.2 4.7
22:20 1008 29.77 838 24.75 -12.8 9 82 -15.3 4.4
22:25 1009 29.8 838 24.75 -13 8.6 82 -15.4 4.2
22:30 1009 29.8 838 24.75 -13.4 7.8 84 -15.6 3.8
22:35 1009 29.8 838 24.75 -13.5 7.7 82 -16 3.3
22:40 1009 29.8 838 24.75 -13.5 7.8 83 -15.8 3.5
22:45 1009 29.8 838 24.75 -13.2 8.2 81 -15.8 3.5
22:50 1009 29.8 838 24.75 -13.3 8 82 -15.9 3.5
22:55 1009 29.8 839 24.78 -13.5 7.8 82 -15.9 3.4
23:00 1010 29.83 839 24.78 -13.5 7.6 82 -16 3.3
23:05 1010 29.83 839 24.78 -13.8 7.2 83 -16.2 2.9
23:10 1010 29.83 839 24.78 -13.9 7.1 84 -16 3.2
23:15 1010 29.83 839 24.78 -13.6 7.5 84 -15.8 3.6
23:20 1010 29.83 839 24.78 -13.4 7.9 83 -15.7 3.7
23:25 1010 29.83 839 24.78 -13.3 8 83 -15.7 3.8
23:30 1010 29.83 839 24.78 -13.4 7.9 83 -15.6 3.8
23:35 1010 29.83 840 24.81 -13.3 8 83 -15.6 3.9
23:40 1010 29.83 840 24.81 -13.3 8.1 83 -15.6 4
23:45 1011 29.85 840 24.81 -13.2 8.2 83 -15.5 4
23:50 1011 29.85 840 24.81 -13.3 8.1 82 -15.7 3.7
23:55 1011 29.85 840 24.81 -13.3 8.1 82 -15.7 3.8
24:00 1011 29.85 840 24.81 -13.3 8.1 83 -15.6 3.9